Skanee, Michigan
Current Conditions -  °F | °C
As of 9:53 AM on Sunday 23 Nov 2014 (Local Time) from KCMX Reporting Station
Haze Haze  
Wind Chill: 33°   Ceiling: 500
Heat Index: 40°   Visibility: 4mi
Dew Point: 37°   Wind: 10mph
Humidity: 89%   Direction: 190°S
Pressure: 29.48"   Gusts: NA
Location:  46.87°N, 88.21°W
Report Text: KCMX 231453Z AUTO 19009KT 4SM BR OVC005 04/03 A2948 RMK AO2 SLP991 T00440028 56002
Loading
Personal Weather Stations






























Interactive Weather Map New forecast layout! Learn more

10-Day Weather Forecast

Advertisements
Track Severe Weather on mobile